Time;durP1;ratioP1;P1;durP2;ratioP2;P2;SDS_P1;SDS_P2;PMS_P1;PMS_P2;Temp;Humidity;BMP_temperature;BMP_pressure;BME280_temperature;BME280_humidity;BME280_pressure;Samples;Min_cycle;Max_cycle;Signal;HPM_P1;HPM_P2
2023/09/07 00:00:39;;;;;;;17.83;8.90;;;21.30;57.80;;;;;;5041974;28;21045;-84
2023/09/07 00:03:05;;;;;;;19.10;9.73;;;21.30;48.10;;;;;;5036381;28;20214;-85
2023/09/07 00:05:31;;;;;;;22.37;9.70;;;21.20;56.00;;;;;;5036057;28;21008;-85
2023/09/07 00:07:57;;;;;;;14.83;8.77;;;21.10;99.00;;;;;;5035888;28;20626;-84
2023/09/07 00:10:22;;;;;;;14.10;8.67;;;21.10;99.90;;;;;;5036664;28;20461;-85
2023/09/07 00:12:48;;;;;;;14.17;7.90;;;21.00;99.90;;;;;;5031184;28;20452;-86
2023/09/07 00:15:14;;;;;;;17.10;9.53;;;21.00;99.90;;;;;;5034118;28;20581;-86
2023/09/07 00:17:39;;;;;;;14.43;8.60;;;20.90;99.90;;;;;;5035733;28;20182;-85
2023/09/07 00:20:10;;;;;;;17.83;9.30;;;20.90;99.90;;;;;;5051367;28;20293;-85
2023/09/07 00:22:36;;;;;;;16.27;9.10;;;20.80;99.90;;;;;;5033442;28;20181;-85
2023/09/07 00:25:03;;;;;;;15.43;8.40;;;20.80;99.90;;;;;;5042211;28;20499;-85
2023/09/07 00:27:29;;;;;;;18.53;8.90;;;20.80;99.90;;;;;;5040672;28;20437;-86
2023/09/07 00:29:55;;;;;;;15.13;9.47;;;20.70;99.90;;;;;;5040576;28;20564;-86
2023/09/07 00:32:20;;;;;;;23.60;10.27;;;20.70;99.90;;;;;;5040719;28;20271;-86
2023/09/07 00:34:46;;;;;;;16.97;9.83;;;20.60;99.90;;;;;;5041055;28;20190;-85
2023/09/07 00:37:12;;;;;;;20.17;9.20;;;20.60;99.90;;;;;;5039222;28;20195;-85
2023/09/07 00:39:37;;;;;;;14.83;8.77;;;20.60;99.90;;;;;;5040364;28;20213;-87
2023/09/07 00:42:03;;;;;;;16.43;9.43;;;20.60;99.90;;;;;;5040809;28;20186;-86
2023/09/07 00:44:29;;;;;;;11.43;7.73;;;20.60;99.90;;;;;;5038061;28;20687;-84
2023/09/07 00:46:56;;;;;;;11.00;8.17;;;20.60;99.90;;;;;;5038038;28;20445;-85
2023/09/07 00:49:22;;;;;;;15.90;8.70;;;20.50;99.90;;;;;;5040566;28;20210;-85
2023/09/07 00:51:47;;;;;;;12.40;8.57;;;20.50;99.90;;;;;;5040321;28;20433;-84
2023/09/07 00:54:13;;;;;;;15.00;9.50;;;20.40;99.90;;;;;;5040010;28;21028;-83
2023/09/07 00:56:39;;;;;;;13.80;9.07;;;20.40;99.90;;;;;;5039354;28;20250;-85
2023/09/07 00:59:07;;;;;;;12.30;8.03;;;20.40;1.00;;;;;;5039317;28;20210;-85
2023/09/07 01:01:33;;;;;;;12.43;7.80;;;20.40;1.00;;;;;;5031701;28;20523;-84
2023/09/07 01:03:58;;;;;;;12.73;9.43;;;20.30;1.00;;;;;;5035604;28;20441;-84
2023/09/07 01:06:32;;;;;;;18.00;8.93;;;20.30;1.00;;;;;;5038663;28;20199;-85
2023/09/07 01:09:03;;;;;;;15.80;8.90;;;20.20;1.00;;;;;;5039605;28;20207;-85
2023/09/07 01:11:37;;;;;;;12.93;8.63;;;20.20;1.00;;;;;;5051635;28;20520;-83
2023/09/07 01:14:03;;;;;;;10.60;7.93;;;20.10;1.00;;;;;;5051418;28;20468;-84
2023/09/07 01:16:30;;;;;;;9.33;7.97;;;20.10;1.00;;;;;;5034385;28;20429;-82
2023/09/07 01:18:56;;;;;;;12.57;8.90;;;20.10;1.00;;;;;;5031440;28;20453;-85
2023/09/07 01:21:22;;;;;;;14.87;8.53;;;20.10;1.00;;;;;;5034379;28;20449;-85
2023/09/07 01:23:49;;;;;;;12.37;8.43;;;20.00;1.00;;;;;;5047435;28;20438;-85
2023/09/07 01:26:15;;;;;;;14.13;8.53;;;20.00;1.00;;;;;;5033013;28;20479;-83
2023/09/07 01:28:41;;;;;;;10.93;8.40;;;20.00;1.00;;;;;;5036846;28;20512;-84
2023/09/07 01:31:07;;;;;;;20.53;9.73;;;19.90;1.00;;;;;;5036121;28;20179;-85
2023/09/07 01:33:33;;;;;;;12.70;9.50;;;19.90;1.00;;;;;;5033409;28;20432;-84
2023/09/07 01:35:58;;;;;;;11.83;9.13;;;19.80;1.00;;;;;;5034166;28;20203;-84
2023/09/07 01:38:24;;;;;;;10.23;8.97;;;19.80;7.00;;;;;;5033682;28;20233;-86
2023/09/07 01:40:49;;;;;;;10.50;8.53;;;19.70;99.90;;;;;;5032995;28;20297;-85
2023/09/07 01:43:15;;;;;;;13.53;8.77;;;19.60;99.90;;;;;;5033701;28;20182;-85
2023/09/07 01:45:40;;;;;;;10.03;8.17;;;19.60;99.90;;;;;;5033300;28;20917;-86
2023/09/07 01:48:12;;;;;;;10.53;8.13;;;19.50;1.00;;;;;;5034475;28;20191;-85
2023/09/07 01:50:37;;;;;;;11.73;8.27;;;19.50;1.00;;;;;;5034460;28;20199;-84
2023/09/07 01:53:04;;;;;;;10.30;8.20;;;19.50;1.00;;;;;;5035864;28;20464;-86
2023/09/07 01:55:30;;;;;;;12.30;8.37;;;19.50;1.00;;;;;;5033011;28;20234;-85
2023/09/07 01:57:56;;;;;;;14.33;8.40;;;19.50;1.00;;;;;;5036305;28;20430;-85
2023/09/07 02:00:21;;;;;;;8.73;7.80;;;19.50;1.00;;;;;;5039348;28;20495;-86
2023/09/07 02:02:46;;;;;;;14.07;8.93;;;19.50;1.00;;;;;;5039467;28;20602;-84
2023/09/07 02:05:12;;;;;;;10.60;8.07;;;19.50;1.00;;;;;;5054661;28;20205;-86
2023/09/07 02:07:38;;;;;;;15.50;8.67;;;19.50;1.00;;;;;;5039686;28;20178;-86
2023/09/07 02:10:05;;;;;;;11.20;7.60;;;19.40;1.00;;;;;;5038097;28;20202;-85
2023/09/07 02:12:31;;;;;;;10.33;7.70;;;19.40;1.00;;;;;;5036442;28;20556;-85
2023/09/07 02:14:56;;;;;;;11.63;8.37;;;19.40;1.00;;;;;;5038926;28;20461;-86
2023/09/07 02:17:22;;;;;;;10.00;7.70;;;19.40;1.00;;;;;;5037375;28;20182;-85
2023/09/07 02:19:47;;;;;;;11.20;8.57;;;19.40;1.00;;;;;;5039035;28;20207;-82
2023/09/07 02:22:13;;;;;;;12.73;8.43;;;19.30;1.00;;;;;;5039716;28;20265;-85
2023/09/07 02:24:39;;;;;;;8.93;8.03;;;19.30;1.00;;;;;;5053746;28;20194;-86
2023/09/07 02:27:04;;;;;;;11.80;8.43;;;19.20;1.00;;;;;;5038956;28;20207;-85
2023/09/07 02:29:29;;;;;;;13.60;9.10;;;19.20;1.00;;;;;;5035988;28;20206;-86
2023/09/07 02:31:56;;;;;;;11.07;8.13;;;19.20;1.00;;;;;;5038646;28;20190;-87
2023/09/07 02:34:22;;;;;;;14.37;8.07;;;19.10;1.00;;;;;;5035699;28;20586;-86
2023/09/07 02:36:47;;;;;;;9.20;7.80;;;19.10;1.00;;;;;;5037546;28;20426;-86
2023/09/07 02:39:13;;;;;;;10.83;8.47;;;19.10;1.00;;;;;;5055608;28;20201;-84
2023/09/07 02:41:39;;;;;;;10.30;8.00;;;19.10;1.00;;;;;;5038500;28;20182;-85
2023/09/07 02:44:05;;;;;;;9.57;8.47;;;19.00;9.40;;;;;;5034425;28;20492;-85
2023/09/07 02:46:30;;;;;;;9.23;8.20;;;19.00;71.70;;;;;;5030500;28;20269;-84
2023/09/07 02:48:59;;;;;;;9.67;8.30;;;19.00;99.90;;;;;;5032175;28;20503;-85
2023/09/07 02:51:25;;;;;;;17.07;8.70;;;19.00;99.90;;;;;;5033187;28;20190;-87
2023/09/07 02:53:51;;;;;;;10.20;8.10;;;18.90;99.90;;;;;;5031657;28;20429;-85
2023/09/07 02:56:17;;;;;;;9.20;7.60;;;18.90;1.00;;;;;;5033062;28;21014;-84
2023/09/07 02:58:42;;;;;;;10.57;7.83;;;18.80;1.00;;;;;;5048020;28;20589;-85
2023/09/07 03:01:13;;;;;;;9.03;8.13;;;18.80;1.00;;;;;;5029529;28;20209;-84
2023/09/07 03:03:41;;;;;;;12.70;9.00;;;18.80;27.10;;;;;;5029663;28;21002;-84
2023/09/07 03:06:16;;;;;;;12.03;8.37;;;18.80;96.90;;;;;;5028961;28;20449;-84
2023/09/07 03:08:42;;;;;;;14.03;8.27;;;18.80;99.90;;;;;;5031437;28;20440;-87
2023/09/07 03:11:08;;;;;;;12.30;8.10;;;18.70;98.90;;;;;;5047120;28;20437;-84
2023/09/07 03:13:34;;;;;;;9.90;8.00;;;18.70;1.00;;;;;;5032793;28;20449;-84
2023/09/07 03:16:00;;;;;;;12.20;8.57;;;18.60;99.90;;;;;;5032582;28;20464;-84
2023/09/07 03:18:26;;;;;;;9.00;8.10;;;18.60;1.00;;;;;;5030870;28;20189;-85
2023/09/07 03:20:55;;;;;;;8.20;7.33;;;18.60;1.00;;;;;;5032367;28;20457;-87
2023/09/07 03:23:20;;;;;;;7.83;6.87;;;18.50;1.00;;;;;;5031650;28;20177;-84
2023/09/07 03:25:46;;;;;;;9.50;7.67;;;18.50;1.00;;;;;;5032596;28;20453;-85
2023/09/07 03:28:11;;;;;;;9.13;7.13;;;18.50;1.00;;;;;;5031221;28;20205;-85
2023/09/07 03:30:37;;;;;;;8.27;7.03;;;18.50;1.00;;;;;;5032507;28;20212;-85
2023/09/07 03:33:04;;;;;;;12.50;7.67;;;18.50;1.00;;;;;;5032700;28;20190;-85
2023/09/07 03:35:29;;;;;;;8.63;7.70;;;18.50;1.00;;;;;;5032642;28;20465;-85
2023/09/07 03:37:55;;;;;;;8.57;7.73;;;18.50;1.00;;;;;;5036448;28;20468;-85
2023/09/07 03:40:21;;;;;;;9.90;8.10;;;18.40;1.00;;;;;;5033745;28;20230;-85
2023/09/07 03:42:46;;;;;;;11.63;7.40;;;18.40;1.00;;;;;;5036181;28;20437;-84
2023/09/07 03:45:12;;;;;;;9.50;7.57;;;18.40;1.00;;;;;;5034597;28;20182;-84
2023/09/07 03:47:38;;;;;;;10.40;7.23;;;18.40;1.00;;;;;;5036418;28;20722;-83
2023/09/07 03:50:04;;;;;;;9.20;6.73;;;18.40;1.00;;;;;;5036599;28;20290;-86
2023/09/07 03:52:30;;;;;;;8.50;6.93;;;18.40;1.00;;;;;;5054288;28;20429;-85
2023/09/07 03:54:56;;;;;;;8.23;7.43;;;18.40;1.00;;;;;;5038655;28;20978;-86
2023/09/07 03:57:21;;;;;;;7.77;7.00;;;18.40;99.90;;;;;;5037993;28;20178;-86
2023/09/07 03:59:48;;;;;;;12.70;7.50;;;18.40;99.90;;;;;;5039048;28;20484;-85
2023/09/07 04:02:13;;;;;;;14.20;7.90;;;18.40;99.90;;;;;;5055059;28;20182;-85
2023/09/07 04:04:40;;;;;;;11.30;7.50;;;18.30;1.00;;;;;;5039563;28;20437;-84
2023/09/07 04:07:05;;;;;;;8.07;7.27;;;18.30;55.50;;;;;;5037514;28;20525;-82
2023/09/07 04:09:31;;;;;;;9.57;7.97;;;18.30;99.90;;;;;;5038211;28;20492;-85
2023/09/07 04:11:56;;;;;;;9.80;8.23;;;18.20;1.00;;;;;;5037496;28;20190;-85
2023/09/07 04:14:22;;;;;;;10.77;8.33;;;18.10;92.60;;;;;;5037486;28;20217;-86
2023/09/07 04:16:47;;;;;;;8.87;7.90;;;18.10;1.00;;;;;;5038685;28;20198;-85
2023/09/07 04:19:13;;;;;;;9.33;7.40;;;18.10;99.90;;;;;;5038116;28;20199;-85
2023/09/07 04:21:38;;;;;;;13.00;8.77;;;18.00;1.00;;;;;;5035798;28;20676;-85
2023/09/07 04:24:04;;;;;;;10.60;8.83;;;18.00;1.00;;;;;;5033606;28;20211;-84
2023/09/07 04:26:30;;;;;;;11.93;8.43;;;18.00;9.50;;;;;;5034925;28;20199;-84
2023/09/07 04:28:55;;;;;;;16.43;8.90;;;17.90;94.90;;;;;;5030691;28;20457;-84
2023/09/07 04:31:21;;;;;;;10.10;9.03;;;17.90;99.90;;;;;;5050438;28;20195;-84
2023/09/07 04:33:47;;;;;;;10.33;9.30;;;17.90;99.90;;;;;;5035065;28;20555;-85
2023/09/07 04:36:14;;;;;;;12.83;8.50;;;17.90;99.90;;;;;;5033971;28;20190;-84
2023/09/07 04:38:41;;;;;;;11.83;7.80;;;17.90;99.90;;;;;;5047704;28;20184;-84
2023/09/07 04:41:09;;;;;;;9.70;8.10;;;17.80;99.90;;;;;;5030354;28;20450;-84
2023/09/07 04:43:36;;;;;;;9.07;7.20;;;17.90;99.90;;;;;;5033370;28;20444;-84
2023/09/07 04:46:02;;;;;;;9.17;8.27;;;17.90;47.20;;;;;;5048563;28;20433;-84
2023/09/07 04:48:28;;;;;;;8.47;7.00;;;17.90;1.00;;;;;;5033492;28;20819;-85
2023/09/07 04:51:05;;;;;;;11.20;7.53;;;17.80;1.00;;;;;;5034192;28;20541;-84
2023/09/07 04:53:33;;;;;;;14.90;8.37;;;17.90;1.00;;;;;;5034286;28;20182;-86
2023/09/07 04:55:59;;;;;;;12.27;7.87;;;17.90;1.00;;;;;;5033949;28;20469;-85
2023/09/07 04:58:25;;;;;;;11.73;8.43;;;17.90;1.00;;;;;;5032053;28;20440;-84
2023/09/07 05:00:51;;;;;;;10.33;8.00;;;18.00;99.90;;;;;;5049094;28;20453;-84
2023/09/07 05:03:17;;;;;;;11.43;7.60;;;18.00;99.90;;;;;;5032273;28;20187;-85
2023/09/07 05:05:44;;;;;;;8.90;7.10;;;18.00;99.90;;;;;;5033039;28;20451;-86
2023/09/07 05:08:09;;;;;;;11.07;8.23;;;18.00;11.40;;;;;;5031186;28;20625;-85
2023/09/07 05:10:36;;;;;;;11.27;7.30;;;18.00;1.00;;;;;;5037298;28;20462;-84
2023/09/07 05:13:01;;;;;;;8.57;7.77;;;18.00;1.00;;;;;;5036666;28;20465;-86
2023/09/07 05:15:27;;;;;;;12.23;7.07;;;18.00;1.00;;;;;;5034624;28;20468;-86
2023/09/07 05:17:53;;;;;;;9.87;7.77;;;18.00;1.00;;;;;;5036435;28;20731;-84
2023/09/07 05:20:19;;;;;;;10.97;7.27;;;18.10;1.00;;;;;;5040825;28;20284;-84
2023/09/07 05:22:45;;;;;;;8.30;7.10;;;18.10;99.90;;;;;;5055984;28;20465;-85
2023/09/07 05:25:11;;;;;;;8.63;7.27;;;18.20;99.90;;;;;;5036357;28;20201;-88
2023/09/07 05:27:37;;;;;;;11.20;7.50;;;18.20;99.90;;;;;;5037853;28;20481;-84
2023/09/07 05:30:04;;;;;;;11.47;7.60;;;18.20;99.10;;;;;;5034226;28;20474;-85
2023/09/07 05:32:29;;;;;;;12.00;8.40;;;18.30;75.60;;;;;;5036923;28;20503;-85
2023/09/07 05:34:54;;;;;;;9.00;7.60;;;18.40;1.00;;;;;;5035021;28;20460;-86
2023/09/07 05:37:23;;;;;;;16.33;7.77;;;18.40;99.90;;;;;;5036575;28;20190;-85
2023/09/07 05:39:48;;;;;;;11.10;7.90;;;18.50;13.90;;;;;;5036297;28;20233;-86
2023/09/07 05:42:14;;;;;;;10.30;8.57;;;18.60;1.00;;;;;;5036407;28;20437;-83
2023/09/07 05:44:40;;;;;;;9.63;7.47;;;18.70;99.90;;;;;;5036045;28;20682;-86
2023/09/07 05:47:05;;;;;;;10.43;6.67;;;21.40;99.90;;;;;;5041669;28;20445;-85
2023/09/07 05:49:31;;;;;;;6.87;6.17;;;24.70;1.00;;;;;;5034418;28;20792;-86
2023/09/07 05:51:57;;;;;;;8.50;6.43;;;27.40;1.00;;;;;;5050381;28;20192;-86
2023/09/07 05:54:22;;;;;;;5.60;5.00;;;29.70;1.00;;;;;;5028761;28;20219;-83
2023/09/07 05:56:48;;;;;;;8.17;5.53;;;31.30;99.90;;;;;;5023331;28;20186;-83
2023/09/07 05:59:13;;;;;;;6.90;5.80;;;32.80;99.90;;;;;;5030438;28;20287;-84
2023/09/07 06:01:39;;;;;;;6.20;5.00;;;34.10;99.90;;;;;;5034057;28;20190;-83
2023/09/07 06:04:05;;;;;;;4.40;4.00;;;35.60;99.90;;;;;;5031003;28;20190;-85
2023/09/07 06:06:31;;;;;;;5.27;4.77;;;36.30;99.90;;;;;;5030732;28;20528;-83
2023/09/07 06:08:58;;;;;;;5.00;4.50;;;38.20;99.90;;;;;;5028186;28;20532;-83
2023/09/07 06:11:24;;;;;;;7.03;4.40;;;39.40;99.90;;;;;;5027989;28;20183;-83
2023/09/07 06:13:50;;;;;;;6.73;4.70;;;40.50;99.90;;;;;;5031150;28;20524;-84
2023/09/07 06:16:16;;;;;;;7.20;4.60;;;40.40;99.90;;;;;;5030712;28;20686;-80
2023/09/07 06:18:41;;;;;;;7.80;5.00;;;41.50;99.90;;;;;;5030788;28;20244;-84
2023/09/07 06:21:07;;;;;;;6.57;4.47;;;42.10;99.90;;;;;;5023936;28;20183;-83
2023/09/07 06:23:32;;;;;;;6.03;4.93;;;43.00;99.90;;;;;;5028252;28;20201;-83
2023/09/07 06:25:58;;;;;;;7.20;4.90;;;43.00;99.90;;;;;;5029562;28;20190;-81
2023/09/07 06:28:23;;;;;;;5.80;4.17;;;43.80;99.90;;;;;;5030903;28;20573;-83
2023/09/07 06:30:49;;;;;;;5.50;4.13;;;43.80;99.90;;;;;;5033741;28;20206;-83
2023/09/07 06:33:14;;;;;;;5.80;4.07;;;44.40;99.90;;;;;;5030764;28;20201;-83
2023/09/07 06:35:40;;;;;;;4.77;4.30;;;44.60;99.90;;;;;;5030370;28;20264;-84
2023/09/07 06:38:05;;;;;;;5.80;4.30;;;44.90;99.90;;;;;;5025746;28;20190;-84
2023/09/07 06:40:31;;;;;;;5.03;4.27;;;45.10;99.90;;;;;;5029122;28;20679;-81
2023/09/07 06:42:57;;;;;;;4.30;4.00;;;46.60;99.90;;;;;;5031030;28;20221;-83
2023/09/07 06:45:23;;;;;;;6.32;3.95;;;45.90;99.90;;;;;;5031015;28;20193;-83
2023/09/07 06:47:52;;;;;;;7.40;4.20;;;45.80;1.00;;;;;;5031399;28;20182;-83
2023/09/07 06:50:18;;;;;;;5.73;4.50;;;46.80;1.00;;;;;;5043169;28;20469;-82
2023/09/07 06:52:43;;;;;;;4.83;4.20;;;47.50;1.00;;;;;;5045866;28;20996;-83
2023/09/07 06:55:09;;;;;;;5.10;4.60;;;47.40;1.00;;;;;;5026952;28;20460;-84
2023/09/07 06:57:34;;;;;;;6.73;4.33;;;47.90;1.00;;;;;;5030071;28;20196;-85
2023/09/07 07:00:00;;;;;;;7.57;4.30;;;47.70;99.90;;;;;;5031575;28;20259;-84
2023/09/07 07:02:26;;;;;;;5.20;3.63;;;49.00;99.90;;;;;;5029232;28;20190;-83
2023/09/07 07:04:51;;;;;;;7.07;3.50;;;49.80;99.90;;;;;;5030602;28;20256;-84
2023/09/07 07:07:18;;;;;;;5.70;3.50;;;49.70;99.90;;;;;;5031271;28;20655;-84
2023/09/07 07:09:43;;;;;;;3.90;3.50;;;49.60;99.90;;;;;;5029810;28;20201;-84
2023/09/07 07:12:09;;;;;;;4.00;3.37;;;50.60;99.90;;;;;;5030464;28;20186;-85
2023/09/07 07:14:34;;;;;;;6.45;3.22;;;50.80;99.90;;;;;;5027026;28;20246;-83
2023/09/07 07:17:03;;;;;;;5.47;3.17;;;51.20;99.90;;;;;;5030270;28;20218;-82
2023/09/07 07:19:28;;;;;;;5.20;3.00;;;51.10;99.90;;;;;;5030055;28;20209;-84
2023/09/07 07:21:54;;;;;;;5.40;3.20;;;51.20;99.90;;;;;;5031109;28;20189;-84
2023/09/07 07:24:19;;;;;;;6.90;3.50;;;50.20;99.90;;;;;;5036379;28;20209;-84
2023/09/07 07:26:46;;;;;;;6.57;3.37;;;50.80;99.90;;;;;;5035426;28;20189;-84
2023/09/07 07:29:11;;;;;;;4.00;3.60;;;49.60;99.90;;;;;;5024155;28;20206;-84
2023/09/07 07:31:38;;;;;;;5.73;3.73;;;49.80;99.90;;;;;;5035034;28;20182;-82
2023/09/07 07:34:04;;;;;;;3.30;3.00;;;50.50;99.90;;;;;;5034353;28;20609;-84
2023/09/07 07:36:29;;;;;;;4.00;3.60;;;50.30;99.90;;;;;;5033578;28;20193;-85
2023/09/07 07:38:55;;;;;;;7.07;3.27;;;50.70;99.90;;;;;;5049845;28;20225;-85
2023/09/07 07:41:20;;;;;;;5.03;3.37;;;51.40;99.90;;;;;;5033647;28;20269;-84
2023/09/07 07:43:46;;;;;;;4.43;3.10;;;51.10;99.90;;;;;;5033872;28;20247;-84
2023/09/07 07:46:15;;;;;;;5.07;3.43;;;49.20;99.90;;;;;;5033756;28;21858;-84
2023/09/07 07:48:41;;;;;;;4.40;3.67;;;49.50;99.90;;;;;;5031166;28;20210;-84
2023/09/07 07:51:06;;;;;;;14.43;3.80;;;48.90;99.90;;;;;;5031218;28;20549;-86
2023/09/07 07:53:32;;;;;;;6.17;3.87;;;49.10;99.90;;;;;;5032966;28;20186;-84
2023/09/07 07:55:57;;;;;;;7.83;3.50;;;49.60;99.90;;;;;;5032888;28;20607;-84
2023/09/07 07:58:23;;;;;;;6.20;4.30;;;48.70;99.90;;;;;;5032871;28;20190;-84
2023/09/07 08:00:48;;;;;;;6.13;4.03;;;48.20;99.90;;;;;;5041109;28;20291;-84
2023/09/07 08:03:15;;;;;;;4.60;3.50;;;47.70;99.90;;;;;;5030677;28;20186;-84
2023/09/07 08:05:41;;;;;;;5.50;3.77;;;48.20;99.90;;;;;;5034073;28;20198;-84
2023/09/07 08:08:06;;;;;;;4.43;3.60;;;48.20;99.90;;;;;;5032210;28;20495;-82
2023/09/07 08:10:40;;;;;;;4.50;3.80;;;48.90;99.90;;;;;;5030529;28;20202;-84
2023/09/07 08:13:06;;;;;;;4.27;3.87;;;49.20;99.90;;;;;;5032830;28;20182;-84
2023/09/07 08:15:32;;;;;;;4.90;3.37;;;48.50;99.90;;;;;;5047860;28;20788;-85
2023/09/07 08:17:58;;;;;;;4.50;3.90;;;48.50;99.90;;;;;;5035696;28;20190;-84
2023/09/07 08:20:25;;;;;;;7.07;4.40;;;48.10;99.90;;;;;;5030280;28;20467;-84
2023/09/07 08:22:52;;;;;;;7.30;3.27;;;48.30;99.90;;;;;;5033511;28;20201;-84
2023/09/07 08:25:18;;;;;;;6.07;3.60;;;49.80;99.90;;;;;;5032013;28;20448;-84
2023/09/07 08:27:45;;;;;;;3.70;3.27;;;50.30;99.90;;;;;;5025799;28;22134;-83
2023/09/07 08:30:17;;;;;;;8.93;3.67;;;50.80;99.90;;;;;;5035033;28;20570;-84
2023/09/07 08:32:43;;;;;;;6.07;3.40;;;50.90;99.90;;;;;;5032566;28;20442;-85
2023/09/07 08:35:12;;;;;;;5.40;3.50;;;50.10;99.90;;;;;;5030285;28;20557;-86
2023/09/07 08:37:38;;;;;;;7.93;4.13;;;48.80;99.90;;;;;;5031336;28;20476;-83
2023/09/07 08:40:07;;;;;;;6.00;4.13;;;48.60;99.90;;;;;;5029137;28;20460;-84
2023/09/07 08:42:32;;;;;;;6.10;3.67;;;48.60;99.90;;;;;;5032070;28;20437;-84
2023/09/07 08:45:03;;;;;;;7.97;3.90;;;49.50;99.90;;;;;;5032201;28;20483;-86
2023/09/07 08:47:31;;;;;;;8.80;4.23;;;49.40;99.90;;;;;;5030509;28;20265;-83
2023/09/07 08:49:57;;;;;;;10.07;3.97;;;49.50;99.90;;;;;;5032511;28;20869;-84
2023/09/07 08:52:23;;;;;;;11.60;4.43;;;49.60;99.90;;;;;;5031049;28;20429;-84
2023/09/07 08:54:50;;;;;;;6.33;3.67;;;49.30;99.90;;;;;;5032500;28;20917;-84
2023/09/07 08:57:17;;;;;;;4.50;4.03;;;49.20;99.90;;;;;;5029040;28;20186;-84
2023/09/07 08:59:43;;;;;;;6.60;4.33;;;48.50;99.90;;;;;;5033632;28;20462;-85
2023/09/07 09:02:10;;;;;;;6.83;4.60;;;47.00;99.90;;;;;;5032230;28;20433;-85
2023/09/07 09:04:36;;;;;;;5.03;4.33;;;48.20;99.90;;;;;;5031098;28;20186;-85
2023/09/07 09:07:03;;;;;;;5.43;4.93;;;47.60;99.90;;;;;;5026622;28;20452;-85
2023/09/07 09:09:29;;;;;;;4.70;4.30;;;46.10;99.90;;;;;;5016654;28;20969;-84
2023/09/07 09:11:55;;;;;;;6.10;4.17;;;46.10;99.90;;;;;;5027424;28;20451;-81
2023/09/07 09:14:23;;;;;;;5.50;5.00;;;47.50;99.90;;;;;;5027301;28;20218;-85
2023/09/07 09:16:50;;;;;;;6.60;5.07;;;45.60;99.90;;;;;;5027712;28;20182;-85
2023/09/07 09:19:16;;;;;;;5.80;5.30;;;46.50;99.90;;;;;;5025358;28;20460;-85
2023/09/07 09:21:43;;;;;;;5.80;5.27;;;44.50;99.90;;;;;;5030392;28;20848;-84
2023/09/07 09:24:11;;;;;;;6.20;5.63;;;44.70;99.90;;;;;;5037346;28;20179;-85
2023/09/07 09:26:39;;;;;;;8.83;4.80;;;46.10;99.90;;;;;;5027602;28;20552;-84
2023/09/07 09:29:05;;;;;;;5.30;4.80;;;47.20;99.90;;;;;;5030672;28;20456;-84
2023/09/07 09:31:31;;;;;;;9.10;4.53;;;48.00;99.90;;;;;;5028024;28;20852;-85
2023/09/07 09:33:57;;;;;;;5.20;4.80;;;46.70;99.90;;;;;;5022566;28;20185;-81
2023/09/07 09:36:23;;;;;;;3.97;3.57;;;46.00;99.90;;;;;;5030733;28;20186;-85
2023/09/07 09:38:50;;;;;;;4.33;3.93;;;46.20;99.90;;;;;;5028728;28;20431;-85
2023/09/07 09:41:17;;;;;;;9.33;3.67;;;46.00;99.90;;;;;;5025521;28;20645;-85
2023/09/07 09:43:45;;;;;;;4.10;3.70;;;46.60;99.90;;;;;;5029101;28;20929;-85
2023/09/07 09:46:12;;;;;;;8.50;4.37;;;46.60;99.90;;;;;;5026973;28;20949;-86
2023/09/07 09:48:39;;;;;;;6.03;3.87;;;46.30;99.90;;;;;;5043751;28;21268;-85
2023/09/07 09:51:06;;;;;;;4.60;4.00;;;46.50;99.90;;;;;;5031284;28;20444;-85
2023/09/07 09:53:32;;;;;;;8.10;4.53;;;45.60;99.90;;;;;;5030025;28;20441;-84
2023/09/07 09:55:58;;;;;;;4.47;3.60;;;44.90;99.90;;;;;;5027232;28;21008;-83
2023/09/07 09:58:23;;;;;;;4.10;3.40;;;45.50;99.90;;;;;;5025858;28;20193;-85
2023/09/07 10:00:56;;;;;;;5.80;3.70;;;45.40;99.90;;;;;;5041603;28;20240;-84
2023/09/07 10:03:30;;;;;;;7.53;3.60;;;45.10;99.90;;;;;;5024233;28;20594;-84
2023/09/07 10:05:56;;;;;;;4.90;3.20;;;45.00;99.90;;;;;;5029451;28;20461;-85
2023/09/07 10:08:23;;;;;;;4.03;3.63;;;46.30;99.90;;;;;;5041531;28;20515;-84
2023/09/07 10:10:55;;;;;;;4.50;4.10;;;46.00;99.90;;;;;;5022211;28;20202;-85
2023/09/07 10:13:33;;;;;;;6.40;3.80;;;45.80;99.90;;;;;;5039414;28;20468;-83
2023/09/07 10:16:09;;;;;;;5.77;4.07;;;45.00;99.90;;;;;;5029194;28;20469;-83
2023/09/07 10:18:36;;;;;;;5.07;3.57;;;45.20;99.90;;;;;;5027535;28;20444;-83
2023/09/07 10:21:03;;;;;;;4.10;3.57;;;46.10;99.90;;;;;;5030833;28;20834;-84
2023/09/07 10:23:42;;;;;;;5.13;3.80;;;46.30;99.90;;;;;;5028302;28;20430;-82
2023/09/07 10:26:16;;;;;;;4.30;3.90;;;44.90;99.90;;;;;;5027356;28;20453;-84
2023/09/07 10:28:43;;;;;;;5.33;3.53;;;45.10;99.90;;;;;;5024157;28;20499;-83
2023/09/07 10:31:19;;;;;;;4.03;3.40;;;45.60;99.90;;;;;;5026496;28;20471;-84
2023/09/07 10:33:45;;;;;;;4.00;3.70;;;45.70;99.90;;;;;;5045171;28;20519;-84
2023/09/07 10:36:26;;;;;;;5.87;3.37;;;44.90;99.90;;;;;;5030154;28;20480;-84
2023/09/07 10:38:55;;;;;;;6.70;3.50;;;44.20;99.90;;;;;;5026718;28;21065;-84
2023/09/07 10:41:21;;;;;;;8.70;3.30;;;44.00;99.90;;;;;;5021399;28;20460;-84
2023/09/07 10:43:51;;;;;;;8.43;3.67;;;45.00;99.90;;;;;;5024825;28;20425;-83
2023/09/07 10:46:21;;;;;;;4.53;4.13;;;44.70;99.90;;;;;;5030500;28;20186;-83
2023/09/07 10:48:51;;;;;;;4.27;3.67;;;44.80;99.90;;;;;;5020076;28;20819;-84
2023/09/07 10:51:18;;;;;;;5.13;3.70;;;44.60;99.90;;;;;;5026280;28;20808;-83
2023/09/07 10:53:44;;;;;;;5.80;3.70;;;45.40;99.90;;;;;;5016191;28;20438;-84
2023/09/07 10:56:09;;;;;;;7.73;4.20;;;45.60;99.90;;;;;;5027948;28;21032;-84
2023/09/07 10:58:39;;;;;;;5.03;3.70;;;46.00;99.90;;;;;;5024215;28;20567;-84
2023/09/07 11:01:05;;;;;;;7.10;3.97;;;46.10;99.90;;;;;;5033096;28;20175;-84
2023/09/07 11:03:31;;;;;;;10.77;4.20;;;45.20;99.90;;;;;;5027963;28;20849;-84
2023/09/07 11:06:06;;;;;;;11.43;3.80;;;43.70;99.90;;;;;;5023923;28;20183;-85
2023/09/07 11:08:33;;;;;;;9.07;3.90;;;43.70;99.90;;;;;;5022442;28;20433;-82
2023/09/07 11:10:58;;;;;;;7.20;3.77;;;43.80;99.90;;;;;;5026844;28;20476;-85
2023/09/07 11:13:25;;;;;;;7.03;3.53;;;44.30;99.90;;;;;;5028537;28;20978;-85
2023/09/07 11:15:55;;;;;;;7.70;4.10;;;43.90;99.90;;;;;;5028450;28;20214;-81
2023/09/07 11:18:21;;;;;;;5.20;4.03;;;43.10;99.90;;;;;;5029695;28;20433;-83
2023/09/07 11:20:48;;;;;;;12.83;4.03;;;42.50;99.90;;;;;;5029999;28;20457;-81
2023/09/07 11:23:14;;;;;;;8.10;4.07;;;43.00;99.90;;;;;;5020869;28;20528;-84
2023/09/07 11:25:39;;;;;;;5.93;4.27;;;43.40;99.90;;;;;;5028377;28;20540;-85
2023/09/07 11:28:06;;;;;;;8.37;4.10;;;42.60;99.90;;;;;;5027459;28;20176;-84
2023/09/07 11:30:35;;;;;;;8.03;4.30;;;42.40;99.90;;;;;;5026607;28;20284;-83
2023/09/07 11:33:01;;;;;;;7.80;3.73;;;41.70;99.90;;;;;;5030670;28;20453;-82
2023/09/07 11:35:26;;;;;;;9.93;3.57;;;41.60;99.90;;;;;;5023206;28;20464;-84
2023/09/07 11:37:52;;;;;;;6.30;3.67;;;41.80;99.90;;;;;;5047755;28;20434;-84
2023/09/07 11:40:18;;;;;;;7.80;3.77;;;42.30;99.90;;;;;;5031402;28;20680;-83
2023/09/07 11:42:43;;;;;;;11.50;4.80;;;42.30;99.90;;;;;;5030240;28;20876;-84
2023/09/07 11:45:09;;;;;;;3.60;3.30;;;41.80;99.90;;;;;;5024886;28;20194;-84
2023/09/07 11:47:35;;;;;;;7.93;3.40;;;42.30;99.90;;;;;;5023819;28;21325;-83
2023/09/07 11:50:01;;;;;;;5.77;3.10;;;41.80;99.90;;;;;;5013318;28;20449;-83
2023/09/07 11:52:26;;;;;;;6.63;3.60;;;42.00;99.90;;;;;;5019734;28;20221;-83
2023/09/07 11:54:52;;;;;;;7.70;2.90;;;42.30;99.90;;;;;;5032025;28;20290;-83
2023/09/07 11:57:17;;;;;;;5.50;3.23;;;42.50;99.90;;;;;;5027304;28;20242;-84
2023/09/07 11:59:43;;;;;;;6.63;3.50;;;41.50;99.90;;;;;;5026385;28;20735;-84
2023/09/07 12:02:12;;;;;;;7.00;3.37;;;41.00;99.90;;;;;;5020997;28;20183;-83
2023/09/07 12:04:38;;;;;;;4.90;3.13;;;40.80;99.90;;;;;;5026062;28;20183;-82
2023/09/07 12:07:04;;;;;;;5.47;3.40;;;40.90;99.90;;;;;;5026875;28;20441;-86
2023/09/07 12:09:29;;;;;;;6.27;3.40;;;40.70;99.90;;;;;;5026749;28;20224;-84
2023/09/07 12:11:55;;;;;;;8.40;3.50;;;40.80;99.90;;;;;;5032544;28;20437;-83
2023/09/07 12:14:20;;;;;;;4.50;3.23;;;40.90;99.90;;;;;;5030526;28;20226;-81
2023/09/07 12:16:46;;;;;;;12.30;3.63;;;40.30;99.90;;;;;;5031794;28;20309;-84
2023/09/07 12:19:11;;;;;;;6.70;3.40;;;40.30;99.90;;;;;;5026302;28;20206;-83
2023/09/07 12:21:37;;;;;;;3.97;2.70;;;40.20;99.90;;;;;;5029563;28;20179;-83
2023/09/07 12:24:03;;;;;;;6.43;3.47;;;39.80;99.90;;;;;;5030548;28;20195;-83
2023/09/07 12:26:28;;;;;;;5.20;3.23;;;39.80;99.90;;;;;;5030666;28;20191;-84
2023/09/07 12:28:54;;;;;;;4.30;3.30;;;39.30;99.90;;;;;;5020215;28;20207;-83
2023/09/07 12:31:19;;;;;;;7.07;3.80;;;39.60;99.90;;;;;;5031816;28;20190;-83
2023/09/07 12:33:45;;;;;;;3.97;2.97;;;39.30;99.90;;;;;;5031054;28;20301;-83
2023/09/07 12:36:11;;;;;;;4.57;3.60;;;39.10;99.90;;;;;;5032524;28;20210;-83
2023/09/07 12:38:37;;;;;;;4.00;3.53;;;39.10;99.90;;;;;;5026397;28;20563;-82
2023/09/07 12:41:03;;;;;;;5.20;3.37;;;39.10;99.90;;;;;;5027337;28;20533;-81